sensor_id;sensor_type;location;lat;lon;timestamp;P1;durP1;ratioP1;P2;durP2;ratioP2
48795;SDS011;34607;48.520;-1.330;2022-09-14T00:02:09;8.27;;;3.50;;
48795;SDS011;34607;48.520;-1.330;2022-09-14T00:04:36;6.93;;;3.65;;
48795;SDS011;34607;48.520;-1.330;2022-09-14T00:07:03;9.45;;;4.15;;
48795;SDS011;34607;48.520;-1.330;2022-09-14T00:09:30;9.75;;;3.50;;
48795;SDS011;34607;48.520;-1.330;2022-09-14T00:11:57;8.05;;;3.88;;
48795;SDS011;34607;48.520;-1.330;2022-09-14T00:14:24;9.05;;;3.63;;
48795;SDS011;34607;48.520;-1.330;2022-09-14T00:16:51;6.47;;;3.67;;
48795;SDS011;34607;48.520;-1.330;2022-09-14T00:19:20;10.50;;;3.58;;
48795;SDS011;34607;48.520;-1.330;2022-09-14T00:21:49;5.85;;;3.45;;
48795;SDS011;34607;48.520;-1.330;2022-09-14T00:24:18;10.00;;;3.95;;
48795;SDS011;34607;48.520;-1.330;2022-09-14T00:26:45;10.07;;;4.53;;
48795;SDS011;34607;48.520;-1.330;2022-09-14T00:29:13;9.80;;;4.03;;
48795;SDS011;34607;48.520;-1.330;2022-09-14T00:31:40;10.77;;;4.70;;
48795;SDS011;34607;48.520;-1.330;2022-09-14T00:34:09;11.63;;;4.47;;
48795;SDS011;34607;48.520;-1.330;2022-09-14T00:36:40;5.70;;;3.83;;
48795;SDS011;34607;48.520;-1.330;2022-09-14T00:39:09;9.63;;;4.85;;
48795;SDS011;34607;48.520;-1.330;2022-09-14T00:41:37;9.95;;;5.43;;
48795;SDS011;34607;48.520;-1.330;2022-09-14T00:44:06;8.05;;;4.82;;
48795;SDS011;34607;48.520;-1.330;2022-09-14T00:47:25;8.63;;;4.18;;
48795;SDS011;34607;48.520;-1.330;2022-09-14T00:49:54;9.43;;;4.50;;
48795;SDS011;34607;48.520;-1.330;2022-09-14T00:52:24;8.10;;;4.38;;
48795;SDS011;34607;48.520;-1.330;2022-09-14T00:54:54;8.00;;;4.70;;
48795;SDS011;34607;48.520;-1.330;2022-09-14T00:57:24;6.38;;;4.03;;
48795;SDS011;34607;48.520;-1.330;2022-09-14T00:59:53;8.82;;;4.78;;
48795;SDS011;34607;48.520;-1.330;2022-09-14T01:02:21;13.77;;;4.75;;
48795;SDS011;34607;48.520;-1.330;2022-09-14T01:04:49;8.20;;;4.50;;
48795;SDS011;34607;48.520;-1.330;2022-09-14T01:07:21;15.60;;;4.22;;
48795;SDS011;34607;48.520;-1.330;2022-09-14T01:10:01;13.27;;;5.18;;
48795;SDS011;34607;48.520;-1.330;2022-09-14T01:12:39;7.88;;;4.90;;
48795;SDS011;34607;48.520;-1.330;2022-09-14T01:15:16;7.72;;;4.57;;
48795;SDS011;34607;48.520;-1.330;2022-09-14T01:17:53;7.53;;;4.22;;
48795;SDS011;34607;48.520;-1.330;2022-09-14T01:20:27;10.55;;;5.40;;
48795;SDS011;34607;48.520;-1.330;2022-09-14T01:23:04;7.30;;;4.65;;
48795;SDS011;34607;48.520;-1.330;2022-09-14T01:28:38;9.00;;;4.70;;
48795;SDS011;34607;48.520;-1.330;2022-09-14T01:31:10;11.52;;;5.20;;
48795;SDS011;34607;48.520;-1.330;2022-09-14T01:33:42;14.65;;;4.72;;
48795;SDS011;34607;48.520;-1.330;2022-09-14T01:36:17;9.07;;;4.60;;
48795;SDS011;34607;48.520;-1.330;2022-09-14T01:38:47;10.50;;;4.25;;
48795;SDS011;34607;48.520;-1.330;2022-09-14T01:41:19;9.20;;;4.95;;
48795;SDS011;34607;48.520;-1.330;2022-09-14T01:43:53;8.95;;;4.20;;
48795;SDS011;34607;48.520;-1.330;2022-09-14T01:46:24;9.47;;;4.23;;
48795;SDS011;34607;48.520;-1.330;2022-09-14T01:48:57;8.05;;;4.60;;
48795;SDS011;34607;48.520;-1.330;2022-09-14T01:51:29;8.40;;;4.90;;
48795;SDS011;34607;48.520;-1.330;2022-09-14T01:54:02;9.75;;;4.70;;
48795;SDS011;34607;48.520;-1.330;2022-09-14T01:56:34;11.05;;;4.28;;
48795;SDS011;34607;48.520;-1.330;2022-09-14T01:59:06;11.20;;;5.05;;
48795;SDS011;34607;48.520;-1.330;2022-09-14T02:01:36;9.43;;;4.47;;
48795;SDS011;34607;48.520;-1.330;2022-09-14T02:04:10;8.35;;;4.45;;
48795;SDS011;34607;48.520;-1.330;2022-09-14T02:06:42;11.85;;;4.68;;
48795;SDS011;34607;48.520;-1.330;2022-09-14T02:09:12;10.23;;;4.85;;
48795;SDS011;34607;48.520;-1.330;2022-09-14T02:11:43;10.55;;;4.90;;
48795;SDS011;34607;48.520;-1.330;2022-09-14T02:14:11;12.15;;;5.00;;
48795;SDS011;34607;48.520;-1.330;2022-09-14T02:16:39;12.40;;;6.57;;
48795;SDS011;34607;48.520;-1.330;2022-09-14T02:19:09;7.57;;;4.55;;
48795;SDS011;34607;48.520;-1.330;2022-09-14T02:21:36;7.38;;;4.45;;
48795;SDS011;34607;48.520;-1.330;2022-09-14T02:24:05;12.93;;;4.70;;
48795;SDS011;34607;48.520;-1.330;2022-09-14T02:26:32;8.48;;;5.07;;
48795;SDS011;34607;48.520;-1.330;2022-09-14T02:29:01;9.00;;;4.15;;
48795;SDS011;34607;48.520;-1.330;2022-09-14T02:31:33;13.93;;;5.30;;
48795;SDS011;34607;48.520;-1.330;2022-09-14T02:34:12;16.80;;;6.55;;
48795;SDS011;34607;48.520;-1.330;2022-09-14T02:36:46;10.45;;;5.13;;
48795;SDS011;34607;48.520;-1.330;2022-09-14T02:39:22;7.65;;;4.07;;
48795;SDS011;34607;48.520;-1.330;2022-09-14T02:41:55;8.93;;;4.60;;
48795;SDS011;34607;48.520;-1.330;2022-09-14T02:44:33;12.10;;;4.93;;
48795;SDS011;34607;48.520;-1.330;2022-09-14T02:47:08;10.85;;;5.00;;
48795;SDS011;34607;48.520;-1.330;2022-09-14T02:49:43;11.45;;;4.65;;
48795;SDS011;34607;48.520;-1.330;2022-09-14T02:52:17;10.98;;;4.65;;
48795;SDS011;34607;48.520;-1.330;2022-09-14T02:54:51;10.70;;;4.57;;
48795;SDS011;34607;48.520;-1.330;2022-09-14T02:57:23;9.45;;;4.70;;
48795;SDS011;34607;48.520;-1.330;2022-09-14T02:59:51;9.35;;;4.47;;
48795;SDS011;34607;48.520;-1.330;2022-09-14T03:02:20;10.43;;;4.05;;
48795;SDS011;34607;48.520;-1.330;2022-09-14T03:04:48;9.60;;;5.55;;
48795;SDS011;34607;48.520;-1.330;2022-09-14T03:07:15;11.82;;;4.70;;
48795;SDS011;34607;48.520;-1.330;2022-09-14T03:09:42;10.35;;;4.47;;
48795;SDS011;34607;48.520;-1.330;2022-09-14T03:12:09;9.18;;;4.90;;
48795;SDS011;34607;48.520;-1.330;2022-09-14T03:14:36;8.23;;;4.20;;
48795;SDS011;34607;48.520;-1.330;2022-09-14T03:17:03;12.65;;;4.35;;
48795;SDS011;34607;48.520;-1.330;2022-09-14T03:19:32;12.75;;;4.35;;
48795;SDS011;34607;48.520;-1.330;2022-09-14T03:21:59;9.30;;;4.15;;
48795;SDS011;34607;48.520;-1.330;2022-09-14T03:24:26;10.70;;;4.72;;
48795;SDS011;34607;48.520;-1.330;2022-09-14T03:26:53;7.55;;;4.07;;
48795;SDS011;34607;48.520;-1.330;2022-09-14T03:29:20;9.25;;;4.53;;
48795;SDS011;34607;48.520;-1.330;2022-09-14T03:31:47;9.80;;;5.05;;
48795;SDS011;34607;48.520;-1.330;2022-09-14T03:34:14;7.78;;;4.28;;
48795;SDS011;34607;48.520;-1.330;2022-09-14T03:36:42;11.45;;;4.80;;
48795;SDS011;34607;48.520;-1.330;2022-09-14T03:39:09;9.82;;;4.45;;
48795;SDS011;34607;48.520;-1.330;2022-09-14T03:41:36;9.73;;;4.72;;
48795;SDS011;34607;48.520;-1.330;2022-09-14T03:44:03;10.48;;;4.75;;
48795;SDS011;34607;48.520;-1.330;2022-09-14T03:46:31;9.60;;;4.65;;
48795;SDS011;34607;48.520;-1.330;2022-09-14T03:48:59;13.38;;;5.53;;
48795;SDS011;34607;48.520;-1.330;2022-09-14T03:51:26;10.50;;;4.63;;
48795;SDS011;34607;48.520;-1.330;2022-09-14T03:53:54;16.55;;;5.10;;
48795;SDS011;34607;48.520;-1.330;2022-09-14T03:56:22;9.18;;;4.55;;
48795;SDS011;34607;48.520;-1.330;2022-09-14T03:58:49;9.07;;;4.55;;
48795;SDS011;34607;48.520;-1.330;2022-09-14T04:01:16;11.18;;;4.82;;
48795;SDS011;34607;48.520;-1.330;2022-09-14T04:03:45;7.63;;;4.57;;
48795;SDS011;34607;48.520;-1.330;2022-09-14T04:06:12;11.82;;;5.72;;
48795;SDS011;34607;48.520;-1.330;2022-09-14T04:08:40;14.30;;;5.07;;
48795;SDS011;34607;48.520;-1.330;2022-09-14T04:11:10;13.35;;;4.63;;
48795;SDS011;34607;48.520;-1.330;2022-09-14T04:13:39;12.73;;;5.15;;
48795;SDS011;34607;48.520;-1.330;2022-09-14T04:16:06;11.50;;;5.50;;
48795;SDS011;34607;48.520;-1.330;2022-09-14T04:18:34;12.10;;;5.68;;
48795;SDS011;34607;48.520;-1.330;2022-09-14T04:21:02;12.68;;;5.70;;
48795;SDS011;34607;48.520;-1.330;2022-09-14T04:23:31;10.77;;;5.22;;
48795;SDS011;34607;48.520;-1.330;2022-09-14T04:25:58;14.25;;;5.07;;
48795;SDS011;34607;48.520;-1.330;2022-09-14T04:28:27;9.90;;;4.85;;
48795;SDS011;34607;48.520;-1.330;2022-09-14T04:30:55;11.50;;;6.13;;
48795;SDS011;34607;48.520;-1.330;2022-09-14T04:33:23;12.27;;;5.35;;
48795;SDS011;34607;48.520;-1.330;2022-09-14T04:35:55;11.32;;;5.47;;
48795;SDS011;34607;48.520;-1.330;2022-09-14T04:38:26;9.90;;;5.82;;
48795;SDS011;34607;48.520;-1.330;2022-09-14T04:40:53;10.75;;;5.30;;
48795;SDS011;34607;48.520;-1.330;2022-09-14T04:43:21;11.75;;;5.18;;
48795;SDS011;34607;48.520;-1.330;2022-09-14T04:45:49;12.48;;;5.55;;
48795;SDS011;34607;48.520;-1.330;2022-09-14T04:48:16;7.00;;;5.05;;
48795;SDS011;34607;48.520;-1.330;2022-09-14T04:50:44;7.35;;;4.22;;
48795;SDS011;34607;48.520;-1.330;2022-09-14T04:53:11;9.90;;;4.40;;
48795;SDS011;34607;48.520;-1.330;2022-09-14T04:55:38;11.60;;;4.88;;
48795;SDS011;34607;48.520;-1.330;2022-09-14T04:58:05;9.50;;;5.60;;
48795;SDS011;34607;48.520;-1.330;2022-09-14T05:00:33;9.32;;;4.38;;
48795;SDS011;34607;48.520;-1.330;2022-09-14T05:03:03;12.55;;;5.28;;
48795;SDS011;34607;48.520;-1.330;2022-09-14T05:05:33;12.65;;;5.18;;
48795;SDS011;34607;48.520;-1.330;2022-09-14T05:08:02;13.90;;;5.13;;
48795;SDS011;34607;48.520;-1.330;2022-09-14T05:10:29;8.05;;;4.95;;
48795;SDS011;34607;48.520;-1.330;2022-09-14T05:12:56;9.15;;;4.28;;
48795;SDS011;34607;48.520;-1.330;2022-09-14T05:15:23;11.73;;;4.80;;
48795;SDS011;34607;48.520;-1.330;2022-09-14T05:17:50;14.13;;;5.15;;
48795;SDS011;34607;48.520;-1.330;2022-09-14T05:20:19;12.65;;;5.05;;
48795;SDS011;34607;48.520;-1.330;2022-09-14T05:22:48;12.05;;;5.25;;
48795;SDS011;34607;48.520;-1.330;2022-09-14T05:25:15;13.13;;;4.43;;
48795;SDS011;34607;48.520;-1.330;2022-09-14T05:27:42;13.35;;;4.45;;
48795;SDS011;34607;48.520;-1.330;2022-09-14T05:30:10;9.02;;;4.53;;
48795;SDS011;34607;48.520;-1.330;2022-09-14T05:32:37;15.13;;;5.15;;
48795;SDS011;34607;48.520;-1.330;2022-09-14T05:35:04;14.07;;;5.35;;
48795;SDS011;34607;48.520;-1.330;2022-09-14T05:37:33;9.02;;;4.50;;
48795;SDS011;34607;48.520;-1.330;2022-09-14T05:40:00;9.75;;;4.53;;
48795;SDS011;34607;48.520;-1.330;2022-09-14T05:42:28;15.50;;;5.70;;
48795;SDS011;34607;48.520;-1.330;2022-09-14T05:44:55;14.15;;;4.53;;
48795;SDS011;34607;48.520;-1.330;2022-09-14T05:47:22;12.48;;;4.35;;
48795;SDS011;34607;48.520;-1.330;2022-09-14T05:49:49;11.65;;;5.60;;
48795;SDS011;34607;48.520;-1.330;2022-09-14T05:52:16;16.05;;;5.65;;
48795;SDS011;34607;48.520;-1.330;2022-09-14T05:54:45;13.40;;;5.25;;
48795;SDS011;34607;48.520;-1.330;2022-09-14T05:57:12;13.50;;;5.10;;
48795;SDS011;34607;48.520;-1.330;2022-09-14T05:59:39;11.10;;;5.68;;
48795;SDS011;34607;48.520;-1.330;2022-09-14T06:02:06;9.68;;;4.38;;
48795;SDS011;34607;48.520;-1.330;2022-09-14T06:04:34;10.98;;;5.30;;
48795;SDS011;34607;48.520;-1.330;2022-09-14T06:07:01;13.10;;;5.72;;
48795;SDS011;34607;48.520;-1.330;2022-09-14T06:09:28;17.45;;;5.65;;
48795;SDS011;34607;48.520;-1.330;2022-09-14T06:11:57;20.30;;;5.38;;
48795;SDS011;34607;48.520;-1.330;2022-09-14T06:14:24;10.63;;;4.82;;
48795;SDS011;34607;48.520;-1.330;2022-09-14T06:16:51;14.25;;;4.65;;
48795;SDS011;34607;48.520;-1.330;2022-09-14T06:19:19;14.20;;;4.72;;
48795;SDS011;34607;48.520;-1.330;2022-09-14T06:21:46;9.80;;;4.32;;
48795;SDS011;34607;48.520;-1.330;2022-09-14T06:24:13;11.48;;;5.32;;
48795;SDS011;34607;48.520;-1.330;2022-09-14T06:26:41;7.80;;;3.75;;
48795;SDS011;34607;48.520;-1.330;2022-09-14T06:29:10;10.25;;;3.88;;
48795;SDS011;34607;48.520;-1.330;2022-09-14T06:31:39;8.27;;;3.60;;
48795;SDS011;34607;48.520;-1.330;2022-09-14T06:34:07;11.90;;;4.10;;
48795;SDS011;34607;48.520;-1.330;2022-09-14T06:36:35;9.25;;;3.92;;
48795;SDS011;34607;48.520;-1.330;2022-09-14T06:39:02;8.68;;;4.30;;
48795;SDS011;34607;48.520;-1.330;2022-09-14T06:41:29;12.18;;;4.15;;
48795;SDS011;34607;48.520;-1.330;2022-09-14T06:43:57;11.10;;;3.30;;
48795;SDS011;34607;48.520;-1.330;2022-09-14T06:46:28;15.52;;;3.90;;
48795;SDS011;34607;48.520;-1.330;2022-09-14T06:48:57;10.15;;;3.67;;
48795;SDS011;34607;48.520;-1.330;2022-09-14T06:51:26;6.95;;;3.50;;
48795;SDS011;34607;48.520;-1.330;2022-09-14T06:53:55;7.70;;;3.67;;
48795;SDS011;34607;48.520;-1.330;2022-09-14T06:56:24;9.63;;;3.35;;
48795;SDS011;34607;48.520;-1.330;2022-09-14T06:58:52;10.52;;;4.07;;
48795;SDS011;34607;48.520;-1.330;2022-09-14T07:01:19;11.55;;;3.47;;
48795;SDS011;34607;48.520;-1.330;2022-09-14T07:03:48;9.52;;;3.40;;
48795;SDS011;34607;48.520;-1.330;2022-09-14T07:06:17;8.27;;;3.25;;
48795;SDS011;34607;48.520;-1.330;2022-09-14T07:08:47;9.82;;;3.38;;
48795;SDS011;34607;48.520;-1.330;2022-09-14T07:11:15;13.82;;;3.40;;
48795;SDS011;34607;48.520;-1.330;2022-09-14T07:13:45;6.63;;;3.30;;
48795;SDS011;34607;48.520;-1.330;2022-09-14T07:16:12;8.45;;;3.13;;
48795;SDS011;34607;48.520;-1.330;2022-09-14T07:18:40;7.68;;;3.35;;
48795;SDS011;34607;48.520;-1.330;2022-09-14T07:21:10;10.23;;;2.90;;
48795;SDS011;34607;48.520;-1.330;2022-09-14T07:23:39;7.95;;;3.40;;
48795;SDS011;34607;48.520;-1.330;2022-09-14T07:26:08;9.00;;;3.00;;
48795;SDS011;34607;48.520;-1.330;2022-09-14T07:28:36;8.30;;;3.22;;
48795;SDS011;34607;48.520;-1.330;2022-09-14T07:31:05;7.72;;;2.58;;
48795;SDS011;34607;48.520;-1.330;2022-09-14T07:33:41;8.07;;;3.03;;
48795;SDS011;34607;48.520;-1.330;2022-09-14T07:36:10;10.15;;;3.42;;
48795;SDS011;34607;48.520;-1.330;2022-09-14T07:38:38;9.23;;;2.65;;
48795;SDS011;34607;48.520;-1.330;2022-09-14T07:41:05;8.95;;;3.35;;
48795;SDS011;34607;48.520;-1.330;2022-09-14T07:43:32;10.52;;;2.72;;
48795;SDS011;34607;48.520;-1.330;2022-09-14T07:46:00;6.53;;;3.22;;
48795;SDS011;34607;48.520;-1.330;2022-09-14T07:48:28;8.05;;;2.47;;
48795;SDS011;34607;48.520;-1.330;2022-09-14T07:50:59;6.05;;;2.90;;
48795;SDS011;34607;48.520;-1.330;2022-09-14T07:53:28;4.50;;;2.30;;
48795;SDS011;34607;48.520;-1.330;2022-09-14T07:55:57;7.63;;;2.78;;
48795;SDS011;34607;48.520;-1.330;2022-09-14T07:58:25;6.70;;;2.65;;
48795;SDS011;34607;48.520;-1.330;2022-09-14T08:00:56;7.20;;;2.22;;
48795;SDS011;34607;48.520;-1.330;2022-09-14T08:03:24;6.22;;;2.22;;
48795;SDS011;34607;48.520;-1.330;2022-09-14T08:05:59;9.23;;;2.72;;
48795;SDS011;34607;48.520;-1.330;2022-09-14T08:08:29;7.60;;;2.60;;
48795;SDS011;34607;48.520;-1.330;2022-09-14T08:11:01;10.43;;;2.72;;
48795;SDS011;34607;48.520;-1.330;2022-09-14T08:13:30;9.85;;;3.20;;
48795;SDS011;34607;48.520;-1.330;2022-09-14T08:15:58;9.88;;;2.45;;
48795;SDS011;34607;48.520;-1.330;2022-09-14T08:18:26;8.18;;;2.90;;
48795;SDS011;34607;48.520;-1.330;2022-09-14T08:20:53;9.95;;;3.45;;
48795;SDS011;34607;48.520;-1.330;2022-09-14T08:23:20;9.30;;;2.25;;
48795;SDS011;34607;48.520;-1.330;2022-09-14T08:25:49;8.77;;;2.58;;
48795;SDS011;34607;48.520;-1.330;2022-09-14T08:28:17;6.22;;;2.50;;
48795;SDS011;34607;48.520;-1.330;2022-09-14T08:30:44;10.35;;;2.72;;
48795;SDS011;34607;48.520;-1.330;2022-09-14T08:33:11;8.27;;;2.40;;
48795;SDS011;34607;48.520;-1.330;2022-09-14T08:35:41;8.52;;;2.42;;
48795;SDS011;34607;48.520;-1.330;2022-09-14T08:38:08;8.90;;;2.58;;
48795;SDS011;34607;48.520;-1.330;2022-09-14T08:40:41;7.25;;;2.78;;
48795;SDS011;34607;48.520;-1.330;2022-09-14T08:43:11;10.70;;;2.50;;
48795;SDS011;34607;48.520;-1.330;2022-09-14T08:45:39;6.50;;;2.17;;
48795;SDS011;34607;48.520;-1.330;2022-09-14T08:48:10;5.05;;;2.15;;
48795;SDS011;34607;48.520;-1.330;2022-09-14T08:50:45;11.45;;;3.03;;
48795;SDS011;34607;48.520;-1.330;2022-09-14T08:53:12;8.25;;;2.45;;
48795;SDS011;34607;48.520;-1.330;2022-09-14T08:55:41;8.73;;;1.90;;
48795;SDS011;34607;48.520;-1.330;2022-09-14T08:58:16;9.30;;;2.53;;
48795;SDS011;34607;48.520;-1.330;2022-09-14T09:00:46;5.35;;;1.88;;
48795;SDS011;34607;48.520;-1.330;2022-09-14T09:03:32;9.40;;;2.42;;
48795;SDS011;34607;48.520;-1.330;2022-09-14T09:06:12;8.43;;;2.30;;
48795;SDS011;34607;48.520;-1.330;2022-09-14T09:08:45;7.43;;;2.00;;
48795;SDS011;34607;48.520;-1.330;2022-09-14T09:11:34;5.93;;;1.90;;
48795;SDS011;34607;48.520;-1.330;2022-09-14T09:14:07;7.55;;;2.35;;
48795;SDS011;34607;48.520;-1.330;2022-09-14T09:16:42;5.53;;;2.15;;
48795;SDS011;34607;48.520;-1.330;2022-09-14T09:19:12;7.05;;;1.90;;
48795;SDS011;34607;48.520;-1.330;2022-09-14T09:21:44;7.30;;;2.08;;
48795;SDS011;34607;48.520;-1.330;2022-09-14T09:24:15;5.55;;;1.90;;
48795;SDS011;34607;48.520;-1.330;2022-09-14T09:26:47;7.40;;;2.03;;
48795;SDS011;34607;48.520;-1.330;2022-09-14T09:29:16;7.85;;;2.28;;
48795;SDS011;34607;48.520;-1.330;2022-09-14T09:32:02;11.02;;;2.05;;
48795;SDS011;34607;48.520;-1.330;2022-09-14T09:34:43;6.88;;;1.70;;
48795;SDS011;34607;48.520;-1.330;2022-09-14T09:37:22;6.30;;;2.05;;
48795;SDS011;34607;48.520;-1.330;2022-09-14T09:39:50;4.85;;;1.88;;
48795;SDS011;34607;48.520;-1.330;2022-09-14T09:42:19;6.43;;;2.00;;
48795;SDS011;34607;48.520;-1.330;2022-09-14T09:44:53;8.32;;;2.35;;
48795;SDS011;34607;48.520;-1.330;2022-09-14T09:47:27;5.78;;;1.80;;
48795;SDS011;34607;48.520;-1.330;2022-09-14T09:49:57;5.05;;;1.90;;
48795;SDS011;34607;48.520;-1.330;2022-09-14T09:52:26;8.48;;;1.73;;
48795;SDS011;34607;48.520;-1.330;2022-09-14T09:54:55;4.78;;;1.70;;
48795;SDS011;34607;48.520;-1.330;2022-09-14T09:57:26;6.40;;;2.45;;
48795;SDS011;34607;48.520;-1.330;2022-09-14T10:00:09;4.88;;;1.60;;
48795;SDS011;34607;48.520;-1.330;2022-09-14T10:02:44;5.13;;;1.30;;
48795;SDS011;34607;48.520;-1.330;2022-09-14T10:05:17;6.30;;;1.50;;
48795;SDS011;34607;48.520;-1.330;2022-09-14T10:07:50;8.57;;;2.63;;
48795;SDS011;34607;48.520;-1.330;2022-09-14T10:10:22;6.82;;;2.25;;
48795;SDS011;34607;48.520;-1.330;2022-09-14T10:12:53;7.13;;;2.20;;
48795;SDS011;34607;48.520;-1.330;2022-09-14T10:15:23;5.32;;;1.83;;
48795;SDS011;34607;48.520;-1.330;2022-09-14T10:17:56;5.82;;;1.77;;
48795;SDS011;34607;48.520;-1.330;2022-09-14T10:20:31;5.32;;;1.90;;
48795;SDS011;34607;48.520;-1.330;2022-09-14T10:23:08;6.32;;;1.90;;
48795;SDS011;34607;48.520;-1.330;2022-09-14T10:25:45;6.07;;;1.85;;
48795;SDS011;34607;48.520;-1.330;2022-09-14T10:28:17;7.88;;;1.95;;
48795;SDS011;34607;48.520;-1.330;2022-09-14T10:30:50;9.75;;;2.10;;
48795;SDS011;34607;48.520;-1.330;2022-09-14T10:33:22;6.82;;;1.65;;
48795;SDS011;34607;48.520;-1.330;2022-09-14T10:35:50;4.50;;;1.40;;
48795;SDS011;34607;48.520;-1.330;2022-09-14T10:38:36;4.35;;;1.63;;
48795;SDS011;34607;48.520;-1.330;2022-09-14T10:41:09;7.50;;;2.53;;
48795;SDS011;34607;48.520;-1.330;2022-09-14T10:43:54;7.35;;;1.85;;
48795;SDS011;34607;48.520;-1.330;2022-09-14T10:46:36;7.40;;;1.80;;
48795;SDS011;34607;48.520;-1.330;2022-09-14T10:49:12;5.00;;;1.88;;
48795;SDS011;34607;48.520;-1.330;2022-09-14T10:51:49;4.07;;;1.45;;
48795;SDS011;34607;48.520;-1.330;2022-09-14T10:54:34;9.50;;;2.28;;
48795;SDS011;34607;48.520;-1.330;2022-09-14T10:57:19;4.00;;;1.67;;
48795;SDS011;34607;48.520;-1.330;2022-09-14T10:59:53;4.72;;;1.80;;
48795;SDS011;34607;48.520;-1.330;2022-09-14T11:02:37;5.07;;;1.90;;
48795;SDS011;34607;48.520;-1.330;2022-09-14T11:05:18;6.70;;;1.75;;
48795;SDS011;34607;48.520;-1.330;2022-09-14T11:07:54;5.80;;;1.80;;
48795;SDS011;34607;48.520;-1.330;2022-09-14T11:10:33;7.70;;;2.05;;
48795;SDS011;34607;48.520;-1.330;2022-09-14T11:13:12;4.78;;;1.60;;
48795;SDS011;34607;48.520;-1.330;2022-09-14T11:15:57;8.00;;;2.03;;
48795;SDS011;34607;48.520;-1.330;2022-09-14T11:18:35;7.45;;;2.35;;
48795;SDS011;34607;48.520;-1.330;2022-09-14T11:21:12;9.35;;;2.60;;
48795;SDS011;34607;48.520;-1.330;2022-09-14T11:23:47;8.65;;;2.92;;
48795;SDS011;34607;48.520;-1.330;2022-09-14T11:26:18;3.95;;;1.63;;
48795;SDS011;34607;48.520;-1.330;2022-09-14T11:28:51;6.57;;;2.05;;
48795;SDS011;34607;48.520;-1.330;2022-09-14T11:31:22;5.35;;;2.20;;
48795;SDS011;34607;48.520;-1.330;2022-09-14T11:33:56;8.25;;;2.22;;
48795;SDS011;34607;48.520;-1.330;2022-09-14T11:36:32;5.22;;;2.42;;
48795;SDS011;34607;48.520;-1.330;2022-09-14T11:39:04;9.10;;;2.70;;
48795;SDS011;34607;48.520;-1.330;2022-09-14T11:41:43;5.88;;;3.05;;
48795;SDS011;34607;48.520;-1.330;2022-09-14T11:46:45;5.95;;;1.95;;
48795;SDS011;34607;48.520;-1.330;2022-09-14T11:49:20;6.03;;;2.55;;
48795;SDS011;34607;48.520;-1.330;2022-09-14T11:51:52;6.07;;;2.20;;
48795;SDS011;34607;48.520;-1.330;2022-09-14T11:54:23;7.25;;;2.00;;
48795;SDS011;34607;48.520;-1.330;2022-09-14T11:56:52;9.15;;;2.78;;
48795;SDS011;34607;48.520;-1.330;2022-09-14T11:59:35;10.85;;;2.90;;
48795;SDS011;34607;48.520;-1.330;2022-09-14T12:05:28;5.68;;;2.30;;
48795;SDS011;34607;48.520;-1.330;2022-09-14T12:08:00;7.88;;;1.80;;
48795;SDS011;34607;48.520;-1.330;2022-09-14T12:10:30;5.40;;;1.48;;
48795;SDS011;34607;48.520;-1.330;2022-09-14T12:12:57;5.30;;;1.77;;
48795;SDS011;34607;48.520;-1.330;2022-09-14T12:15:45;4.88;;;1.88;;
48795;SDS011;34607;48.520;-1.330;2022-09-14T12:21:02;6.32;;;1.48;;
48795;SDS011;34607;48.520;-1.330;2022-09-14T12:23:42;2.53;;;1.40;;
48795;SDS011;34607;48.520;-1.330;2022-09-14T12:29:03;5.10;;;1.63;;
48795;SDS011;34607;48.520;-1.330;2022-09-14T12:31:57;3.97;;;1.33;;
48795;SDS011;34607;48.520;-1.330;2022-09-14T12:34:31;4.10;;;1.65;;
48795;SDS011;34607;48.520;-1.330;2022-09-14T12:49:14;5.47;;;1.70;;
48795;SDS011;34607;48.520;-1.330;2022-09-14T12:51:49;5.30;;;1.58;;
48795;SDS011;34607;48.520;-1.330;2022-09-14T12:54:21;7.72;;;2.17;;
48795;SDS011;34607;48.520;-1.330;2022-09-14T12:56:56;4.07;;;1.33;;
48795;SDS011;34607;48.520;-1.330;2022-09-14T12:59:33;5.43;;;1.88;;
48795;SDS011;34607;48.520;-1.330;2022-09-14T13:02:20;11.50;;;2.55;;
48795;SDS011;34607;48.520;-1.330;2022-09-14T13:05:05;4.00;;;1.80;;
48795;SDS011;34607;48.520;-1.330;2022-09-14T13:07:40;6.20;;;2.22;;
48795;SDS011;34607;48.520;-1.330;2022-09-14T13:10:16;7.53;;;2.33;;
48795;SDS011;34607;48.520;-1.330;2022-09-14T13:12:46;7.00;;;2.63;;
48795;SDS011;34607;48.520;-1.330;2022-09-14T13:15:15;10.38;;;2.72;;
48795;SDS011;34607;48.520;-1.330;2022-09-14T13:18:00;7.45;;;2.35;;
48795;SDS011;34607;48.520;-1.330;2022-09-14T13:20:29;6.00;;;2.75;;
48795;SDS011;34607;48.520;-1.330;2022-09-14T13:22:57;8.20;;;2.85;;
48795;SDS011;34607;48.520;-1.330;2022-09-14T13:25:27;6.90;;;2.33;;
48795;SDS011;34607;48.520;-1.330;2022-09-14T13:27:59;9.20;;;2.78;;
48795;SDS011;34607;48.520;-1.330;2022-09-14T13:30:29;5.00;;;2.92;;
48795;SDS011;34607;48.520;-1.330;2022-09-14T13:32:57;9.25;;;3.00;;
48795;SDS011;34607;48.520;-1.330;2022-09-14T13:35:29;9.50;;;2.38;;
48795;SDS011;34607;48.520;-1.330;2022-09-14T13:40:31;4.75;;;2.10;;
48795;SDS011;34607;48.520;-1.330;2022-09-14T13:42:59;7.75;;;2.28;;
48795;SDS011;34607;48.520;-1.330;2022-09-14T13:45:27;8.60;;;2.40;;
48795;SDS011;34607;48.520;-1.330;2022-09-14T13:47:54;10.23;;;2.63;;
48795;SDS011;34607;48.520;-1.330;2022-09-14T13:50:22;7.18;;;2.58;;
48795;SDS011;34607;48.520;-1.330;2022-09-14T13:52:51;8.10;;;2.72;;
48795;SDS011;34607;48.520;-1.330;2022-09-14T13:55:21;14.32;;;3.85;;
48795;SDS011;34607;48.520;-1.330;2022-09-14T14:00:48;8.57;;;3.10;;
48795;SDS011;34607;48.520;-1.330;2022-09-14T14:03:22;8.30;;;3.50;;
48795;SDS011;34607;48.520;-1.330;2022-09-14T14:05:52;11.98;;;3.88;;
48795;SDS011;34607;48.520;-1.330;2022-09-14T14:08:24;8.80;;;3.08;;
48795;SDS011;34607;48.520;-1.330;2022-09-14T14:10:55;6.22;;;3.00;;
48795;SDS011;34607;48.520;-1.330;2022-09-14T14:13:26;12.35;;;3.40;;
48795;SDS011;34607;48.520;-1.330;2022-09-14T14:18:49;9.05;;;2.72;;
48795;SDS011;34607;48.520;-1.330;2022-09-14T14:21:27;7.07;;;3.80;;
48795;SDS011;34607;48.520;-1.330;2022-09-14T14:26:46;9.25;;;3.40;;
48795;SDS011;34607;48.520;-1.330;2022-09-14T14:29:15;9.07;;;3.13;;
48795;SDS011;34607;48.520;-1.330;2022-09-14T14:31:42;9.13;;;3.60;;
48795;SDS011;34607;48.520;-1.330;2022-09-14T14:34:11;12.20;;;5.38;;
48795;SDS011;34607;48.520;-1.330;2022-09-14T14:36:44;11.65;;;4.72;;
48795;SDS011;34607;48.520;-1.330;2022-09-14T14:39:14;12.85;;;4.07;;
48795;SDS011;34607;48.520;-1.330;2022-09-14T14:41:42;9.15;;;4.30;;
48795;SDS011;34607;48.520;-1.330;2022-09-14T14:44:09;10.63;;;4.43;;
48795;SDS011;34607;48.520;-1.330;2022-09-14T14:46:42;8.00;;;4.10;;
48795;SDS011;34607;48.520;-1.330;2022-09-14T14:49:10;9.25;;;3.00;;
48795;SDS011;34607;48.520;-1.330;2022-09-14T14:51:38;10.65;;;3.30;;
48795;SDS011;34607;48.520;-1.330;2022-09-14T14:54:06;5.72;;;3.05;;
48795;SDS011;34607;48.520;-1.330;2022-09-14T14:56:34;9.90;;;3.92;;
48795;SDS011;34607;48.520;-1.330;2022-09-14T14:59:02;11.30;;;3.97;;
48795;SDS011;34607;48.520;-1.330;2022-09-14T15:01:40;8.38;;;3.40;;
48795;SDS011;34607;48.520;-1.330;2022-09-14T15:04:08;8.00;;;3.97;;
48795;SDS011;34607;48.520;-1.330;2022-09-14T15:06:35;8.85;;;3.63;;
48795;SDS011;34607;48.520;-1.330;2022-09-14T15:09:04;8.77;;;2.95;;
48795;SDS011;34607;48.520;-1.330;2022-09-14T15:11:34;8.35;;;3.05;;
48795;SDS011;34607;48.520;-1.330;2022-09-14T15:14:04;9.07;;;3.40;;
48795;SDS011;34607;48.520;-1.330;2022-09-14T15:16:34;9.73;;;3.25;;
48795;SDS011;34607;48.520;-1.330;2022-09-14T15:19:01;7.15;;;3.28;;
48795;SDS011;34607;48.520;-1.330;2022-09-14T15:21:30;7.85;;;3.30;;
48795;SDS011;34607;48.520;-1.330;2022-09-14T15:23:57;13.75;;;3.63;;
48795;SDS011;34607;48.520;-1.330;2022-09-14T15:26:24;9.43;;;4.22;;
48795;SDS011;34607;48.520;-1.330;2022-09-14T15:28:51;6.65;;;3.20;;
48795;SDS011;34607;48.520;-1.330;2022-09-14T15:31:18;11.52;;;3.65;;